Time;durP1;ratioP1;P1;durP2;ratioP2;P2;SDS_P1;SDS_P2;PMS_P1;PMS_P2;Temp;Humidity;BMP_temperature;BMP_pressure;BME280_temperature;BME280_humidity;BME280_pressure;Samples;Min_cycle;Max_cycle;Signal;HPM_P1;HPM_P2
2022/06/16 00:01:21;;;;;;;;;;;;;;;14.19;49.09;96790.00;6249647;28;19925;-66
2022/06/16 00:04:23;;;;;;;;;;;;;;;14.21;49.17;96798.63;6250082;28;20384;-68
2022/06/16 00:07:25;;;;;;;;;;;;;;;14.22;48.78;96801.16;6249851;28;19928;-68
2022/06/16 00:10:27;;;;;;;;;;;;;;;14.28;49.26;96805.94;6249981;28;20292;-67
2022/06/16 00:13:33;;;;;;;;;;;;;;;14.32;49.33;96806.53;6250088;28;19921;-67
2022/06/16 00:16:37;;;;;;;;;;;;;;;14.38;49.21;96798.94;6249647;28;20019;-67
2022/06/16 00:19:40;;;;;;;;;;;;;;;14.42;48.80;96793.41;6249354;28;19921;-67
2022/06/16 00:22:42;;;;;;;;;;;;;;;14.43;49.27;96789.78;6248958;28;20471;-67
2022/06/16 00:25:43;;;;;;;;;;;;;;;14.45;49.10;96790.50;6249336;28;20016;-67
2022/06/16 00:28:46;;;;;;;;;;;;;;;14.47;49.41;96792.06;6249057;28;19944;-68
2022/06/16 00:31:48;;;;;;;;;;;;;;;14.51;50.28;96793.47;6249674;28;19921;-68
2022/06/16 00:34:51;;;;;;;;;;;;;;;14.57;49.41;96794.81;6249043;28;19921;-68
2022/06/16 00:37:57;;;;;;;;;;;;;;;14.62;50.02;96797.09;6248911;28;19921;-67
2022/06/16 00:41:00;;;;;;;;;;;;;;;14.67;48.90;96789.63;6248710;28;19916;-67
2022/06/16 00:44:12;;;;;;;;;;;;;;;14.70;49.38;96790.19;6248554;28;20289;-69
2022/06/16 00:47:17;;;;;;;;;;;;;;;14.75;48.85;96795.97;6248956;28;19917;-68
2022/06/16 00:50:21;;;;;;;;;;;;;;;14.79;49.55;96800.03;6248970;28;20308;-67
2022/06/16 00:53:23;;;;;;;;;;;;;;;14.87;49.00;96802.03;6248783;28;19920;-67
2022/06/16 00:56:29;;;;;;;;;;;;;;;14.91;49.59;96803.47;6248316;28;20015;-68
2022/06/16 00:59:30;;;;;;;;;;;;;;;14.98;49.60;96790.56;6248161;28;20304;-67
2022/06/16 01:02:33;;;;;;;;;;;;;;;15.03;48.67;96789.19;6248637;28;19928;-67
2022/06/16 01:05:39;;;;;;;;;;;;;;;15.10;48.25;96792.16;6247967;28;20031;-68
2022/06/16 01:08:40;;;;;;;;;;;;;;;15.15;48.67;96791.78;6248298;28;20380;-67
2022/06/16 01:15:23;;;;;;;;;;;;;;;15.33;47.93;96786.72;6248029;28;20011;-67
2022/06/16 01:18:45;;;;;;;;;;;;;;;15.45;47.49;96785.66;6248272;28;19943;-68
2022/06/16 01:21:58;;;;;;;;;;;;;;;15.58;47.46;96791.59;6247906;28;19927;-68
2022/06/16 01:25:28;;;;;;;;;;;;;;;15.69;47.63;96786.25;6246444;28;20011;-68
2022/06/16 01:28:33;;;;;;;;;;;;;;;15.82;47.54;96793.13;6248295;28;19927;-67
2022/06/16 01:31:40;;;;;;;;;;;;;;;15.90;47.76;96798.59;6247803;28;19921;-66
2022/06/16 01:34:46;;;;;;;;;;;;;;;16.01;47.58;96787.88;6247520;28;19928;-67
2022/06/16 01:37:47;;;;;;;;;;;;;;;16.11;47.03;96791.41;6248071;28;19925;-68
2022/06/16 01:40:56;;;;;;;;;;;;;;;16.25;46.26;96794.63;6247574;28;20000;-68
2022/06/16 01:44:07;;;;;;;;;;;;;;;16.40;46.53;96790.63;6247720;28;19921;-69
2022/06/16 01:47:11;;;;;;;;;;;;;;;16.51;47.18;96794.97;6247783;28;19920;-68
2022/06/16 01:50:15;;;;;;;;;;;;;;;16.58;46.70;96802.22;6247706;28;19921;-68
2022/06/16 01:53:20;;;;;;;;;;;;;;;16.69;46.91;96795.13;6247620;28;19924;-67
2022/06/16 01:56:26;;;;;;;;;;;;;;;16.80;46.69;96800.34;6247447;28;19925;-67
2022/06/16 01:59:34;;;;;;;;;;;;;;;16.89;46.42;96799.47;6246250;28;19920;-68
2022/06/16 02:02:37;;;;;;;;;;;;;;;17.01;46.50;96803.69;6246391;28;19928;-67
2022/06/16 02:05:50;;;;;;;;;;;;;;;17.12;47.03;96801.84;6246562;28;19921;-68
2022/06/16 02:08:56;;;;;;;;;;;;;;;17.23;46.98;96796.38;6246677;28;19920;-68
2022/06/16 02:11:59;;;;;;;;;;;;;;;17.33;47.16;96799.88;6246922;28;20308;-68
2022/06/16 02:15:05;;;;;;;;;;;;;;;17.44;47.15;96794.38;6246515;28;20019;-68
2022/06/16 02:18:12;;;;;;;;;;;;;;;17.56;46.75;96797.69;6246736;28;19928;-68
2022/06/16 02:21:17;;;;;;;;;;;;;;;17.67;47.64;96800.19;6246802;28;19927;-68
2022/06/16 02:24:22;;;;;;;;;;;;;;;17.77;47.54;96802.78;6247051;28;19927;-67
2022/06/16 02:27:23;;;;;;;;;;;;;;;17.89;47.29;96803.47;6246622;28;19921;-67
2022/06/16 02:30:26;;;;;;;;;;;;;;;18.02;47.10;96803.16;6246785;28;20023;-68
2022/06/16 02:33:40;;;;;;;;;;;;;;;18.13;46.98;96800.28;6246103;28;19925;-67
2022/06/16 02:36:44;;;;;;;;;;;;;;;18.23;47.58;96798.44;6246769;28;19921;-67
2022/06/16 02:39:57;;;;;;;;;;;;;;;18.31;46.77;96801.16;6246167;28;19921;-67
2022/06/16 02:43:07;;;;;;;;;;;;;;;18.43;47.57;96803.63;6246390;28;19928;-67
2022/06/16 02:46:17;;;;;;;;;;;;;;;18.54;47.91;96800.72;6246030;28;19925;-67
2022/06/16 02:49:37;;;;;;;;;;;;;;;18.61;47.82;96804.50;6245940;28;20320;-67
2022/06/16 02:52:45;;;;;;;;;;;;;;;18.73;47.19;96803.25;6246165;28;20316;-67
2022/06/16 02:55:53;;;;;;;;;;;;;;;18.83;47.22;96809.41;6245405;28;19927;-67
2022/06/16 02:59:00;;;;;;;;;;;;;;;18.93;46.93;96803.16;6245792;28;20384;-68
2022/06/16 03:02:09;;;;;;;;;;;;;;;19.04;47.41;96811.75;6245538;28;19920;-66
2022/06/16 03:05:13;;;;;;;;;;;;;;;19.14;46.97;96814.34;6245909;28;19927;-67
2022/06/16 03:08:16;;;;;;;;;;;;;;;19.25;46.82;96811.44;6245460;28;20391;-68
2022/06/16 03:11:17;;;;;;;;;;;;;;;19.36;46.40;96806.81;6247030;28;20257;-68
2022/06/16 03:14:19;;;;;;;;;;;;;;;19.45;46.23;96804.06;6251140;28;19921;-67
2022/06/16 03:17:23;;;;;;;;;;;;;;;19.59;45.88;96810.66;6250563;28;19928;-68
2022/06/16 03:20:29;;;;;;;;;;;;;;;19.69;45.80;96805.25;6250498;28;19921;-68
2022/06/16 03:23:30;;;;;;;;;;;;;;;19.86;46.01;96806.16;6251198;28;19921;-68
2022/06/16 03:26:34;;;;;;;;;;;;;;;19.99;45.38;96801.22;6250405;28;19921;-66
2022/06/16 03:29:39;;;;;;;;;;;;;;;20.06;45.13;96802.25;6250335;28;19928;-68
2022/06/16 03:32:42;;;;;;;;;;;;;;;20.11;44.78;96799.94;6265201;28;19927;-67
2022/06/16 03:35:44;;;;;;;;;;;;;;;20.19;44.70;96808.00;6250618;28;19921;-67
2022/06/16 03:38:47;;;;;;;;;;;;;;;20.30;44.11;96806.03;6249952;28;19921;-68
2022/06/16 03:41:52;;;;;;;;;;;;;;;20.40;44.17;96814.72;6250177;28;20308;-68
2022/06/16 03:44:53;;;;;;;;;;;;;;;20.50;43.89;96810.09;6249874;28;19920;-67
2022/06/16 03:47:59;;;;;;;;;;;;;;;20.59;43.67;96811.81;6249911;28;19920;-67
2022/06/16 03:51:00;;;;;;;;;;;;;;;20.69;43.82;96808.97;6250492;28;20407;-67
2022/06/16 03:54:01;;;;;;;;;;;;;;;20.78;43.48;96813.38;6249582;28;19927;-68
2022/06/16 03:57:03;;;;;;;;;;;;;;;20.89;43.88;96812.22;6250009;28;20307;-67
2022/06/16 04:00:05;;;;;;;;;;;;;;;21.00;43.33;96811.88;6249441;28;20301;-67
2022/06/16 04:06:34;;;;;;;;;;;;;;;21.28;42.74;96822.25;6249398;28;19983;-67
2022/06/16 04:09:36;;;;;;;;;;;;;;;21.37;42.50;96812.41;6249727;28;19921;-68
2022/06/16 04:12:39;;;;;;;;;;;;;;;21.47;42.63;96813.91;6249735;28;20022;-68
2022/06/16 04:15:42;;;;;;;;;;;;;;;21.63;42.29;96812.22;6249348;28;19921;-68
2022/06/16 04:18:44;;;;;;;;;;;;;;;21.79;41.74;96817.53;6249716;28;20418;-68
2022/06/16 04:21:45;;;;;;;;;;;;;;;21.86;41.24;96813.16;6249337;28;20400;-67
2022/06/16 04:24:49;;;;;;;;;;;;;;;21.96;41.15;96816.47;6249195;28;20396;-67
2022/06/16 04:27:56;;;;;;;;;;;;;;;22.11;41.12;96815.78;6249046;28;20074;-68
2022/06/16 04:30:58;;;;;;;;;;;;;;;22.27;40.62;96815.72;6249008;28;19924;-67
2022/06/16 04:34:05;;;;;;;;;;;;;;;22.50;40.15;96817.63;6247272;28;19944;-68
2022/06/16 04:37:09;;;;;;;;;;;;;;;22.64;39.51;96811.50;6248773;28;19935;-67
2022/06/16 04:40:13;;;;;;;;;;;;;;;22.82;38.94;96804.03;6248752;28;19927;-67
2022/06/16 04:43:17;;;;;;;;;;;;;;;23.08;38.28;96810.94;6248783;28;19948;-67
2022/06/16 04:46:19;;;;;;;;;;;;;;;23.50;37.83;96807.72;6249160;28;20277;-68
2022/06/16 04:49:21;;;;;;;;;;;;;;;24.20;36.59;96809.19;6248678;28;19928;-67
2022/06/16 04:52:26;;;;;;;;;;;;;;;26.68;33.13;96815.72;6248458;28;19921;-68
2022/06/16 04:55:30;;;;;;;;;;;;;;;29.25;30.13;96821.03;6248775;28;19921;-67
2022/06/16 04:58:32;;;;;;;;;;;;;;;29.86;29.43;96822.22;6248471;28;19971;-68
2022/06/16 05:01:35;;;;;;;;;;;;;;;29.72;29.72;96823.38;6248220;28;20296;-67
2022/06/16 05:04:39;;;;;;;;;;;;;;;32.57;27.07;96834.09;6248594;28;19921;-67
2022/06/16 05:07:41;;;;;;;;;;;;;;;37.66;23.30;96832.97;6249120;28;19924;-67
2022/06/16 05:10:42;;;;;;;;;;;;;;;42.19;19.46;96845.25;6248557;28;19921;-67
2022/06/16 05:13:43;;;;;;;;;;;;;;;45.42;17.98;96850.22;6249053;28;19994;-66
2022/06/16 05:16:44;;;;;;;;;;;;;;;47.85;16.52;96856.06;6248419;28;20304;-67
2022/06/16 05:19:48;;;;;;;;;;;;;;;49.33;14.92;96852.34;6247691;28;19980;-66
2022/06/16 05:22:50;;;;;;;;;;;;;;;49.29;14.92;96851.44;6247579;28;19925;-67
2022/06/16 05:25:53;;;;;;;;;;;;;;;47.05;15.52;96851.38;6247692;28;19921;-67
2022/06/16 05:28:57;;;;;;;;;;;;;;;43.22;17.66;96838.53;6247470;28;19921;-67
2022/06/16 05:32:01;;;;;;;;;;;;;;;39.42;20.69;96835.81;6247682;28;19920;-67
2022/06/16 05:35:03;;;;;;;;;;;;;;;36.74;18.74;96817.06;6246841;28;19944;-68
2022/06/16 05:38:05;;;;;;;;;;;;;;;34.83;22.75;96815.78;6246976;28;19963;-67
2022/06/16 05:41:12;;;;;;;;;;;;;;;33.46;24.32;96803.63;6247456;28;19921;-66
2022/06/16 05:44:18;;;;;;;;;;;;;;;32.19;24.78;96795.41;6247072;28;20027;-67
2022/06/16 05:47:21;;;;;;;;;;;;;;;32.48;23.69;96803.69;6247522;28;20316;-67
2022/06/16 05:50:25;;;;;;;;;;;;;;;37.28;19.20;96807.66;6246707;28;19944;-66
2022/06/16 05:53:31;;;;;;;;;;;;;;;42.29;13.72;96817.38;6247194;28;19925;-66
2022/06/16 05:56:35;;;;;;;;;;;;;;;46.07;10.43;96830.94;6246992;28;20312;-67
2022/06/16 05:59:39;;;;;;;;;;;;;;;48.74;11.46;96841.63;6246756;28;20324;-68
2022/06/16 06:02:42;;;;;;;;;;;;;;;51.01;10.82;96850.56;6246727;28;19929;-67
2022/06/16 06:05:48;;;;;;;;;;;;;;;53.06;9.44;96855.47;6245591;28;20011;-66
2022/06/16 06:16:25;;;;;;;;;;;;;;;55.62;7.27;96847.28;6246979;28;19921;-67
2022/06/16 06:19:24;;;;;;;;;;;;;;;57.82;7.91;96852.63;6246256;28;20016;-68
2022/06/16 06:22:29;;;;;;;;;;;;;;;59.26;8.02;96847.56;6246257;28;20411;-66
2022/06/16 06:25:34;;;;;;;;;;;;;;;60.33;7.97;96851.06;6247529;28;20397;-67
2022/06/16 06:28:36;;;;;;;;;;;;;;;61.07;7.07;96853.13;6264602;28;19921;-66
2022/06/16 06:31:40;;;;;;;;;;;;;;;61.73;5.22;96848.63;6272779;28;20404;-66
2022/06/16 06:34:46;;;;;;;;;;;;;;;62.10;5.90;96849.44;6272258;28;19921;-66
2022/06/16 06:37:51;;;;;;;;;;;;;;;62.66;6.27;96845.69;6275638;28;20479;-66
2022/06/16 06:40:54;;;;;;;;;;;;;;;62.06;5.87;96849.50;6277319;28;19920;-67
2022/06/16 06:44:00;;;;;;;;;;;;;;;58.54;6.50;96824.69;6258187;28;19920;-66
2022/06/16 06:47:05;;;;;;;;;;;;;;;57.33;6.82;96824.09;6246039;28;19920;-65
2022/06/16 06:50:16;;;;;;;;;;;;;;;53.07;8.63;96795.25;6245849;28;19975;-67
2022/06/16 06:53:18;;;;;;;;;;;;;;;48.67;10.44;96774.41;6245791;28;19916;-67
2022/06/16 06:56:20;;;;;;;;;;;;;;;45.08;12.25;96758.50;6245941;28;19928;-67
2022/06/16 06:59:21;;;;;;;;;;;;;;;42.11;12.89;96760.25;6245462;28;19921;-67
2022/06/16 07:02:26;;;;;;;;;;;;;;;39.82;13.98;96745.75;6245856;28;19921;-66
2022/06/16 07:05:30;;;;;;;;;;;;;;;40.18;13.61;96746.19;6245753;28;19920;-67
2022/06/16 07:08:31;;;;;;;;;;;;;;;41.67;12.33;96761.56;6245369;28;19983;-67
2022/06/16 07:11:35;;;;;;;;;;;;;;;43.32;11.44;96754.41;6245523;28;20385;-67
2022/06/16 07:14:38;;;;;;;;;;;;;;;44.93;10.32;96752.31;6246052;28;19921;-67
2022/06/16 07:17:40;;;;;;;;;;;;;;;48.17;8.81;96778.31;6244972;28;19921;-67
2022/06/16 07:20:43;;;;;;;;;;;;;;;51.71;7.34;96784.44;6245023;28;19921;-67
2022/06/16 07:23:48;;;;;;;;;;;;;;;53.09;7.00;96790.06;6245216;28;19921;-67
2022/06/16 07:26:50;;;;;;;;;;;;;;;52.42;7.06;96782.16;6245599;28;19917;-67
2022/06/16 07:29:51;;;;;;;;;;;;;;;54.42;6.26;96786.84;6245484;28;19921;-67
2022/06/16 07:32:55;;;;;;;;;;;;;;;56.60;4.69;96792.69;6244853;28;19916;-67
2022/06/16 07:35:59;;;;;;;;;;;;;;;58.38;5.08;96799.72;6243882;28;19925;-67
2022/06/16 07:39:07;;;;;;;;;;;;;;;59.25;4.58;96799.72;6245140;28;19916;-67
2022/06/16 07:42:10;;;;;;;;;;;;;;;60.15;4.06;96800.22;6245865;28;19925;-66
2022/06/16 07:45:14;;;;;;;;;;;;;;;59.74;4.23;96792.66;6245318;28;20004;-67
2022/06/16 07:48:19;;;;;;;;;;;;;;;59.94;4.37;96795.63;6245553;28;19936;-67
2022/06/16 07:51:21;;;;;;;;;;;;;;;59.35;4.19;96784.63;6245496;28;20303;-67
2022/06/16 07:54:25;;;;;;;;;;;;;;;58.72;3.30;96778.38;6245224;28;20012;-67
2022/06/16 07:57:27;;;;;;;;;;;;;;;56.99;4.06;96772.03;6245632;28;20411;-67
2022/06/16 08:00:31;;;;;;;;;;;;;;;58.09;3.64;96765.09;6249429;28;19921;-66
2022/06/16 08:03:35;;;;;;;;;;;;;;;55.51;4.82;96756.91;6249207;28;19921;-67
2022/06/16 08:06:38;;;;;;;;;;;;;;;50.82;6.74;96746.84;6248638;28;19975;-67
2022/06/16 08:09:40;;;;;;;;;;;;;;;46.66;8.91;96728.09;6249183;28;20378;-67
2022/06/16 08:12:44;;;;;;;;;;;;;;;44.37;10.24;96713.16;6248517;28;19921;-68
2022/06/16 08:15:49;;;;;;;;;;;;;;;46.06;9.07;96712.47;6249160;28;20015;-65
2022/06/16 08:18:55;;;;;;;;;;;;;;;49.37;7.29;96721.88;6249111;28;20494;-66
2022/06/16 08:22:00;;;;;;;;;;;;;;;52.18;5.89;96730.81;6249189;28;19982;-66
2022/06/16 08:25:02;;;;;;;;;;;;;;;53.06;5.34;96731.81;6249465;28;19928;-67
2022/06/16 08:28:09;;;;;;;;;;;;;;;53.02;5.72;96722.50;6248965;28;19925;-67
2022/06/16 08:31:12;;;;;;;;;;;;;;;53.23;5.34;96719.97;6248455;28;19921;-67
2022/06/16 08:34:14;;;;;;;;;;;;;;;55.11;5.14;96724.91;6248341;28;19928;-67
2022/06/16 08:37:20;;;;;;;;;;;;;;;55.19;5.28;96736.22;6249190;28;20410;-66
2022/06/16 08:40:25;;;;;;;;;;;;;;;50.67;6.32;96718.50;6248461;28;19927;-68
2022/06/16 08:43:31;;;;;;;;;;;;;;;44.96;9.33;96687.78;6248689;28;19968;-67
2022/06/16 08:46:42;;;;;;;;;;;;;;;41.53;11.16;96691.66;6248374;28;19927;-67
2022/06/16 08:49:53;;;;;;;;;;;;;;;39.78;12.43;96684.09;6248674;28;19925;-66
2022/06/16 08:53:10;;;;;;;;;;;;;;;38.95;12.57;96683.91;6248505;28;19917;-67
2022/06/16 08:56:14;;;;;;;;;;;;;;;37.93;13.36;96681.63;6248437;28;19921;-67
2022/06/16 08:59:29;;;;;;;;;;;;;;;37.56;13.72;96688.28;6248113;28;19917;-67
2022/06/16 09:02:42;;;;;;;;;;;;;;;39.64;11.96;96684.75;6248327;28;19925;-67
2022/06/16 09:05:58;;;;;;;;;;;;;;;44.68;9.41;96700.31;6248068;28;19936;-66
2022/06/16 09:09:02;;;;;;;;;;;;;;;46.35;8.24;96701.41;6246738;28;20004;-66
2022/06/16 09:12:19;;;;;;;;;;;;;;;45.00;8.97;96697.09;6248345;28;19917;-67
2022/06/16 09:15:27;;;;;;;;;;;;;;;44.79;9.51;96693.34;6248556;28;19929;-67
2022/06/16 09:18:34;;;;;;;;;;;;;;;42.56;10.32;96689.38;6248388;28;19921;-67
2022/06/16 09:21:43;;;;;;;;;;;;;;;42.14;10.81;96687.75;6247754;28;20150;-67
2022/06/16 09:24:49;;;;;;;;;;;;;;;44.68;9.50;96683.66;6247861;28;20388;-66
2022/06/16 09:27:52;;;;;;;;;;;;;;;43.88;9.46;96680.94;6247721;28;19928;-67
2022/06/16 09:30:58;;;;;;;;;;;;;;;41.62;10.96;96670.50;6247096;28;19921;-67
2022/06/16 09:34:06;;;;;;;;;;;;;;;41.08;11.22;96677.47;6246936;28;19925;-67
2022/06/16 09:37:19;;;;;;;;;;;;;;;39.14;12.49;96664.81;6247361;28;19921;-67
2022/06/16 09:40:33;;;;;;;;;;;;;;;39.07;12.84;96653.31;6247218;28;20401;-66
2022/06/16 09:43:41;;;;;;;;;;;;;;;41.69;10.90;96665.38;6247270;28;19920;-66
2022/06/16 09:46:47;;;;;;;;;;;;;;;44.79;9.36;96665.59;6247228;28;20380;-67
2022/06/16 09:49:53;;;;;;;;;;;;;;;45.47;8.86;96669.44;6246949;28;19971;-67
2022/06/16 09:53:02;;;;;;;;;;;;;;;46.05;8.48;96669.94;6246984;28;19921;-66
2022/06/16 09:56:16;;;;;;;;;;;;;;;47.05;8.36;96675.09;6246788;28;19921;-67
2022/06/16 09:59:24;;;;;;;;;;;;;;;48.45;7.82;96675.16;6246939;28;19921;-67
2022/06/16 10:02:34;;;;;;;;;;;;;;;49.85;7.12;96692.03;6246658;28;19921;-67
2022/06/16 10:05:42;;;;;;;;;;;;;;;50.40;6.85;96683.88;6247285;28;19927;-67
2022/06/16 10:08:55;;;;;;;;;;;;;;;50.51;6.47;96675.72;6247220;28;20327;-66
2022/06/16 10:12:14;;;;;;;;;;;;;;;50.88;6.43;96678.16;6246497;28;19925;-67
2022/06/16 10:15:22;;;;;;;;;;;;;;;50.20;6.53;96674.56;6246957;28;20055;-67
2022/06/16 10:18:26;;;;;;;;;;;;;;;48.41;7.33;96665.84;6246141;28;19928;-67
2022/06/16 10:21:27;;;;;;;;;;;;;;;48.16;7.62;96660.31;6245557;28;19921;-68
2022/06/16 10:24:34;;;;;;;;;;;;;;;48.06;7.30;96660.75;6246747;28;19925;-67
2022/06/16 10:27:41;;;;;;;;;;;;;;;46.80;7.93;96661.03;6247031;28;19917;-66
2022/06/16 10:30:45;;;;;;;;;;;;;;;43.83;9.71;96645.06;6245197;28;19928;-68
2022/06/16 10:33:53;;;;;;;;;;;;;;;42.55;10.53;96648.19;6246331;28;19968;-67
2022/06/16 10:36:59;;;;;;;;;;;;;;;43.61;10.25;96646.75;6246042;28;20312;-67
2022/06/16 10:40:05;;;;;;;;;;;;;;;45.15;9.57;96653.31;6246171;28;19928;-66
2022/06/16 10:43:12;;;;;;;;;;;;;;;46.18;8.85;96654.19;6245059;28;19921;-66
2022/06/16 10:46:13;;;;;;;;;;;;;;;46.34;8.84;96648.88;6246007;28;20315;-67
2022/06/16 10:49:16;;;;;;;;;;;;;;;46.03;8.87;96649.19;6246417;28;19990;-66
2022/06/16 10:52:29;;;;;;;;;;;;;;;44.93;9.43;96641.25;6245937;28;20407;-67
2022/06/16 10:55:41;;;;;;;;;;;;;;;45.06;9.44;96633.06;6245649;28;20380;-67
2022/06/16 10:58:48;;;;;;;;;;;;;;;45.40;9.28;96633.00;6245314;28;20387;-67
2022/06/16 11:01:59;;;;;;;;;;;;;;;45.52;9.45;96634.31;6245523;28;19920;-68
2022/06/16 11:05:03;;;;;;;;;;;;;;;44.81;9.39;96632.75;6245743;28;20019;-67
2022/06/16 11:08:12;;;;;;;;;;;;;;;43.84;9.87;96628.09;6245372;28;20400;-67
2022/06/16 11:11:31;;;;;;;;;;;;;;;42.29;11.06;96617.47;6245771;28;19920;-67
2022/06/16 11:14:43;;;;;;;;;;;;;;;41.31;11.60;96612.22;6246280;28;20020;-67
2022/06/16 11:17:50;;;;;;;;;;;;;;;41.30;11.64;96608.63;6245875;28;20007;-67
2022/06/16 11:20:55;;;;;;;;;;;;;;;41.40;11.46;96613.97;6245581;28;19921;-67
2022/06/16 11:24:05;;;;;;;;;;;;;;;41.10;11.78;96609.81;6245806;28;19921;-67
2022/06/16 11:27:11;;;;;;;;;;;;;;;40.43;12.29;96618.28;6246008;28;20385;-67
2022/06/16 11:30:26;;;;;;;;;;;;;;;39.70;12.96;96606.47;6245370;28;20006;-67
2022/06/16 11:37:08;;;;;;;;;;;;;;;39.01;13.27;96603.03;6246859;28;20388;-68
2022/06/16 11:40:32;;;;;;;;;;;;;;;38.97;13.56;96601.94;6250410;28;19921;-68
2022/06/16 11:43:38;;;;;;;;;;;;;;;38.37;13.68;96602.06;6249840;28;20054;-67
2022/06/16 11:46:49;;;;;;;;;;;;;;;37.72;14.20;96599.31;6249720;28;19921;-69
2022/06/16 11:50:28;;;;;;;;;;;;;;;37.57;14.67;96598.53;6249638;28;19921;-67
2022/06/16 11:53:37;;;;;;;;;;;;;;;37.74;14.42;96596.31;6246817;28;20347;-67
2022/06/16 11:56:44;;;;;;;;;;;;;;;37.85;14.29;96595.16;6264513;28;19925;-67
2022/06/16 12:00:12;;;;;;;;;;;;;;;37.51;14.70;96590.34;6249076;28;20027;-68
2022/06/16 12:03:22;;;;;;;;;;;;;;;37.34;14.48;96588.97;6249510;28;20304;-67
2022/06/16 12:06:32;;;;;;;;;;;;;;;37.40;14.33;96594.19;6249638;28;19928;-68
2022/06/16 12:09:41;;;;;;;;;;;;;;;37.08;14.57;96587.06;6249076;28;19921;-67
2022/06/16 12:12:48;;;;;;;;;;;;;;;36.99;14.63;96583.22;6249154;28;19921;-67
2022/06/16 12:16:08;;;;;;;;;;;;;;;36.68;14.89;96578.84;6248876;28;19921;-67
2022/06/16 12:19:14;;;;;;;;;;;;;;;35.98;15.93;96579.19;6249021;28;19963;-68
2022/06/16 12:22:15;;;;;;;;;;;;;;;35.68;15.87;96567.06;6249176;28;19921;-67
2022/06/16 12:25:16;;;;;;;;;;;;;;;35.34;16.26;96563.03;6249507;28;20340;-68
2022/06/16 12:28:22;;;;;;;;;;;;;;;35.46;16.05;96555.44;6248717;28;19925;-67
2022/06/16 12:31:34;;;;;;;;;;;;;;;35.36;16.25;96555.38;6248936;28;20079;-67
2022/06/16 12:34:44;;;;;;;;;;;;;;;35.03;16.83;96557.34;6249047;28;20387;-67
2022/06/16 12:37:51;;;;;;;;;;;;;;;34.43;17.19;96553.84;6247242;28;19921;-67
2022/06/16 12:40:55;;;;;;;;;;;;;;;34.12;17.56;96552.72;6249129;28;19921;-67
2022/06/16 12:43:56;;;;;;;;;;;;;;;33.62;18.25;96553.75;6248414;28;19921;-68
2022/06/16 12:47:01;;;;;;;;;;;;;;;33.32;18.89;96549.53;6248422;28;19921;-68
2022/06/16 12:50:02;;;;;;;;;;;;;;;33.05;18.80;96549.41;6248706;28;20399;-67
2022/06/16 12:53:16;;;;;;;;;;;;;;;32.81;18.93;96565.09;6248750;28;19921;-67
2022/06/16 12:56:32;;;;;;;;;;;;;;;32.36;19.71;96552.34;6248192;28;19920;-67
2022/06/16 12:59:36;;;;;;;;;;;;;;;31.97;20.28;96547.56;6248490;28;19921;-68
2022/06/16 13:02:44;;;;;;;;;;;;;;;31.68;20.66;96552.13;6248064;28;19925;-67
2022/06/16 13:05:50;;;;;;;;;;;;;;;31.51;20.77;96548.53;6248117;28;19921;-67
2022/06/16 13:08:56;;;;;;;;;;;;;;;31.04;20.75;96545.84;6247822;28;19921;-68
2022/06/16 13:12:05;;;;;;;;;;;;;;;31.12;20.66;96542.75;6247499;28;19925;-67
2022/06/16 13:15:30;;;;;;;;;;;;;;;31.06;20.75;96549.97;6247577;28;19924;-68
2022/06/16 13:18:40;;;;;;;;;;;;;;;31.01;21.04;96546.31;6247653;28;20362;-67
2022/06/16 13:21:49;;;;;;;;;;;;;;;31.07;20.86;96546.19;6247663;28;19921;-68
2022/06/16 13:24:55;;;;;;;;;;;;;;;31.14;21.11;96556.09;6247432;28;20360;-68
2022/06/16 13:28:03;;;;;;;;;;;;;;;31.22;21.00;96547.59;6247411;28;20068;-69
2022/06/16 13:31:09;;;;;;;;;;;;;;;31.06;21.56;96554.59;6247846;28;20311;-68
2022/06/16 13:34:21;;;;;;;;;;;;;;;30.72;22.01;96548.06;6246591;28;19977;-67
2022/06/16 13:37:28;;;;;;;;;;;;;;;30.50;22.21;96550.50;6247221;28;20090;-68
2022/06/16 13:40:33;;;;;;;;;;;;;;;30.17;22.80;96551.81;6247003;28;19936;-69
2022/06/16 13:43:37;;;;;;;;;;;;;;;30.08;22.65;96547.78;6246797;28;19921;-68
2022/06/16 13:46:56;;;;;;;;;;;;;;;30.23;22.94;96553.63;6247036;28;19921;-68
2022/06/16 13:50:01;;;;;;;;;;;;;;;29.92;23.36;96549.22;6246597;28;19928;-67
2022/06/16 13:53:05;;;;;;;;;;;;;;;29.88;23.82;96543.44;6246938;28;19921;-68
2022/06/16 13:56:22;;;;;;;;;;;;;;;29.54;23.88;96543.03;6246204;28;19984;-68
2022/06/16 13:59:27;;;;;;;;;;;;;;;29.45;23.96;96549.81;6245506;28;19921;-67
2022/06/16 14:02:32;;;;;;;;;;;;;;;29.31;24.43;96548.31;6246543;28;20023;-68
2022/06/16 14:05:35;;;;;;;;;;;;;;;28.99;24.51;96548.41;6245856;28;19928;-67
2022/06/16 14:08:49;;;;;;;;;;;;;;;28.84;24.88;96537.09;6246682;28;19921;-68
2022/06/16 14:11:58;;;;;;;;;;;;;;;29.01;24.90;96551.72;6245405;28;20011;-67
2022/06/16 14:15:00;;;;;;;;;;;;;;;28.87;25.43;96542.06;6246195;28;19921;-67
2022/06/16 14:18:25;;;;;;;;;;;;;;;28.75;25.96;96538.44;6246000;28;19920;-67
2022/06/16 14:21:33;;;;;;;;;;;;;;;28.64;26.05;96548.94;6246172;28;19931;-68
2022/06/16 14:24:54;;;;;;;;;;;;;;;28.60;26.43;96542.31;6246122;28;19921;-68
2022/06/16 14:28:03;;;;;;;;;;;;;;;28.33;26.44;96540.84;6244989;28;19921;-69
2022/06/16 14:31:04;;;;;;;;;;;;;;;28.19;26.59;96537.38;6245799;28;19928;-67
2022/06/16 14:34:09;;;;;;;;;;;;;;;28.22;27.18;96545.06;6246398;28;19971;-70
2022/06/16 14:37:17;;;;;;;;;;;;;;;28.14;27.24;96548.88;6245861;28;19921;-68
2022/06/16 14:40:54;;;;;;;;;;;;;;;28.01;27.69;96554.38;6246427;28;19920;-67
2022/06/16 14:44:15;;;;;;;;;;;;;;;27.63;28.49;96546.22;6242569;28;19927;-68
2022/06/16 14:47:28;;;;;;;;;;;;;;;27.31;28.55;96549.66;6244695;28;20666;-68
2022/06/16 14:50:29;;;;;;;;;;;;;;;27.17;28.90;96541.81;6245481;28;19944;-67
2022/06/16 14:53:40;;;;;;;;;;;;;;;27.00;28.98;96544.09;6245962;28;20308;-69
2022/06/16 14:56:47;;;;;;;;;;;;;;;26.76;29.31;96541.03;6245137;28;20307;-67
2022/06/16 15:00:14;;;;;;;;;;;;;;;26.62;29.78;96539.41;6245507;28;19960;-67
2022/06/16 15:03:17;;;;;;;;;;;;;;;26.72;29.75;96544.34;6244777;28;19930;-67
2022/06/16 15:06:23;;;;;;;;;;;;;;;26.60;29.82;96546.88;6247673;28;19921;-68
2022/06/16 15:09:29;;;;;;;;;;;;;;;26.57;29.65;96541.88;6250815;28;20014;-68
2022/06/16 15:12:35;;;;;;;;;;;;;;;26.68;30.00;96549.34;6250541;28;19933;-67
2022/06/16 15:15:39;;;;;;;;;;;;;;;26.48;30.05;96548.50;6250761;28;19921;-66
2022/06/16 15:18:43;;;;;;;;;;;;;;;26.28;30.71;96546.63;6249293;28;19917;-68
2022/06/16 15:21:44;;;;;;;;;;;;;;;26.10;31.19;96551.78;6250412;28;20304;-67
2022/06/16 15:24:52;;;;;;;;;;;;;;;25.92;31.70;96553.19;6250858;28;20388;-67
2022/06/16 15:27:58;;;;;;;;;;;;;;;25.83;32.32;96557.13;6249246;28;19921;-67
2022/06/16 15:31:32;;;;;;;;;;;;;;;25.62;32.47;96544.59;6251003;28;19921;-67
2022/06/16 15:38:14;;;;;;;;;;;;;;;25.38;33.06;96543.25;6248867;28;19921;-68
2022/06/16 15:41:27;;;;;;;;;;;;;;;25.39;33.29;96549.47;6249875;28;19925;-67
2022/06/16 15:44:40;;;;;;;;;;;;;;;25.14;33.41;96551.78;6250763;28;20513;-67
2022/06/16 15:47:45;;;;;;;;;;;;;;;25.10;34.04;96557.56;6249974;28;19920;-67
2022/06/16 15:50:46;;;;;;;;;;;;;;;24.99;34.09;96566.19;6249542;28;20403;-67
2022/06/16 15:53:51;;;;;;;;;;;;;;;24.84;34.03;96560.09;6249410;28;19921;-67
2022/06/16 15:57:02;;;;;;;;;;;;;;;24.86;34.36;96558.88;6249868;28;19921;-68
2022/06/16 16:00:09;;;;;;;;;;;;;;;24.79;34.75;96566.06;6249097;28;19925;-67
2022/06/16 16:03:14;;;;;;;;;;;;;;;24.99;34.65;96560.81;6249103;28;19927;-67
2022/06/16 16:06:16;;;;;;;;;;;;;;;24.97;34.71;96557.50;6249416;28;19928;-67
2022/06/16 16:09:22;;;;;;;;;;;;;;;24.85;35.34;96562.63;6249958;28;19921;-67
2022/06/16 16:12:29;;;;;;;;;;;;;;;24.82;35.57;96564.84;6248164;28;19921;-67
2022/06/16 16:15:36;;;;;;;;;;;;;;;24.60;35.91;96566.75;6249374;28;19921;-67
2022/06/16 16:18:37;;;;;;;;;;;;;;;24.45;35.93;96561.47;6248901;28;19932;-68
2022/06/16 16:21:45;;;;;;;;;;;;;;;24.34;36.32;96567.34;6249401;28;19979;-68
2022/06/16 16:24:52;;;;;;;;;;;;;;;24.35;36.31;96563.63;6248762;28;20044;-68
2022/06/16 16:27:54;;;;;;;;;;;;;;;24.37;36.54;96572.31;6248873;28;19921;-68
2022/06/16 16:31:09;;;;;;;;;;;;;;;24.23;37.00;96559.78;6248577;28;19921;-68
2022/06/16 16:34:10;;;;;;;;;;;;;;;24.12;37.25;96570.06;6248606;28;19932;-68